sensor_id;sensor_type;location;lat;lon;timestamp;P1;durP1;ratioP1;P2;durP2;ratioP2
69573;SDS011;62840;52.366;5.980;2022-11-20T00:00:45;9.27;;;4.03;;
69573;SDS011;62840;52.366;5.980;2022-11-20T00:03:11;9.52;;;4.20;;
69573;SDS011;62840;52.366;5.980;2022-11-20T00:05:37;10.07;;;4.20;;
69573;SDS011;62840;52.366;5.980;2022-11-20T00:08:03;8.43;;;3.83;;
69573;SDS011;62840;52.366;5.980;2022-11-20T00:10:29;8.88;;;4.32;;
69573;SDS011;62840;52.366;5.980;2022-11-20T00:12:59;10.07;;;3.95;;
69573;SDS011;62840;52.366;5.980;2022-11-20T00:15:25;8.23;;;3.67;;
69573;SDS011;62840;52.366;5.980;2022-11-20T00:17:51;8.98;;;4.05;;
69573;SDS011;62840;52.366;5.980;2022-11-20T00:20:17;10.50;;;4.07;;
69573;SDS011;62840;52.366;5.980;2022-11-20T00:22:42;8.73;;;3.85;;
69573;SDS011;62840;52.366;5.980;2022-11-20T00:25:08;9.57;;;3.87;;
69573;SDS011;62840;52.366;5.980;2022-11-20T00:27:34;9.35;;;4.25;;
69573;SDS011;62840;52.366;5.980;2022-11-20T00:30:06;9.32;;;4.13;;
69573;SDS011;62840;52.366;5.980;2022-11-20T00:32:33;9.13;;;3.85;;
69573;SDS011;62840;52.366;5.980;2022-11-20T00:34:58;9.20;;;3.70;;
69573;SDS011;62840;52.366;5.980;2022-11-20T00:37:24;11.07;;;3.95;;
69573;SDS011;62840;52.366;5.980;2022-11-20T00:39:51;9.43;;;4.30;;
69573;SDS011;62840;52.366;5.980;2022-11-20T00:42:16;8.60;;;3.70;;
69573;SDS011;62840;52.366;5.980;2022-11-20T00:44:42;9.52;;;3.58;;
69573;SDS011;62840;52.366;5.980;2022-11-20T00:47:10;9.60;;;4.10;;
69573;SDS011;62840;52.366;5.980;2022-11-20T00:49:36;9.23;;;3.78;;
69573;SDS011;62840;52.366;5.980;2022-11-20T00:52:02;8.37;;;3.30;;
69573;SDS011;62840;52.366;5.980;2022-11-20T00:54:28;9.50;;;4.03;;
69573;SDS011;62840;52.366;5.980;2022-11-20T00:56:54;8.55;;;3.38;;
69573;SDS011;62840;52.366;5.980;2022-11-20T00:59:19;11.30;;;4.45;;
69573;SDS011;62840;52.366;5.980;2022-11-20T01:01:45;8.93;;;3.83;;
69573;SDS011;62840;52.366;5.980;2022-11-20T01:04:14;7.75;;;3.78;;
69573;SDS011;62840;52.366;5.980;2022-11-20T01:06:39;9.52;;;4.28;;
69573;SDS011;62840;52.366;5.980;2022-11-20T01:09:06;9.07;;;4.13;;
69573;SDS011;62840;52.366;5.980;2022-11-20T01:11:38;7.53;;;3.67;;
69573;SDS011;62840;52.366;5.980;2022-11-20T01:14:07;9.82;;;4.10;;
69573;SDS011;62840;52.366;5.980;2022-11-20T01:16:39;10.65;;;4.40;;
69573;SDS011;62840;52.366;5.980;2022-11-20T01:19:09;9.70;;;4.35;;
69573;SDS011;62840;52.366;5.980;2022-11-20T01:21:41;7.88;;;4.28;;
69573;SDS011;62840;52.366;5.980;2022-11-20T01:24:10;11.10;;;4.30;;
69573;SDS011;62840;52.366;5.980;2022-11-20T01:26:39;7.95;;;3.67;;
69573;SDS011;62840;52.366;5.980;2022-11-20T01:29:08;10.15;;;3.92;;
69573;SDS011;62840;52.366;5.980;2022-11-20T01:31:39;8.90;;;3.58;;
69573;SDS011;62840;52.366;5.980;2022-11-20T01:34:05;9.07;;;3.77;;
69573;SDS011;62840;52.366;5.980;2022-11-20T01:36:37;8.48;;;3.28;;
69573;SDS011;62840;52.366;5.980;2022-11-20T01:39:05;10.15;;;3.88;;
69573;SDS011;62840;52.366;5.980;2022-11-20T01:41:35;9.15;;;3.65;;
69573;SDS011;62840;52.366;5.980;2022-11-20T01:44:02;8.43;;;4.07;;
69573;SDS011;62840;52.366;5.980;2022-11-20T01:46:29;8.82;;;4.20;;
69573;SDS011;62840;52.366;5.980;2022-11-20T01:48:57;7.72;;;3.70;;
69573;SDS011;62840;52.366;5.980;2022-11-20T01:51:29;9.18;;;3.70;;
69573;SDS011;62840;52.366;5.980;2022-11-20T01:54:07;9.88;;;3.70;;
69573;SDS011;62840;52.366;5.980;2022-11-20T01:56:42;8.33;;;3.47;;
69573;SDS011;62840;52.366;5.980;2022-11-20T01:59:13;8.30;;;3.53;;
69573;SDS011;62840;52.366;5.980;2022-11-20T02:01:44;8.30;;;3.55;;
69573;SDS011;62840;52.366;5.980;2022-11-20T02:04:10;8.40;;;3.83;;
69573;SDS011;62840;52.366;5.980;2022-11-20T02:06:39;10.45;;;3.95;;
69573;SDS011;62840;52.366;5.980;2022-11-20T02:09:13;11.37;;;4.00;;
69573;SDS011;62840;52.366;5.980;2022-11-20T02:11:40;10.18;;;3.70;;
69573;SDS011;62840;52.366;5.980;2022-11-20T02:14:05;8.65;;;3.80;;
69573;SDS011;62840;52.366;5.980;2022-11-20T02:16:33;8.35;;;3.88;;
69573;SDS011;62840;52.366;5.980;2022-11-20T02:19:06;9.30;;;3.27;;
69573;SDS011;62840;52.366;5.980;2022-11-20T02:21:43;8.48;;;3.78;;
69573;SDS011;62840;52.366;5.980;2022-11-20T02:24:22;7.97;;;3.53;;
69573;SDS011;62840;52.366;5.980;2022-11-20T02:26:50;9.50;;;3.83;;
69573;SDS011;62840;52.366;5.980;2022-11-20T02:29:23;9.05;;;4.15;;
69573;SDS011;62840;52.366;5.980;2022-11-20T02:31:53;7.83;;;3.83;;
69573;SDS011;62840;52.366;5.980;2022-11-20T02:34:23;8.82;;;3.47;;
69573;SDS011;62840;52.366;5.980;2022-11-20T02:36:49;8.30;;;3.90;;
69573;SDS011;62840;52.366;5.980;2022-11-20T02:39:18;8.32;;;3.63;;
69573;SDS011;62840;52.366;5.980;2022-11-20T02:41:49;8.37;;;3.43;;
69573;SDS011;62840;52.366;5.980;2022-11-20T02:44:17;8.55;;;3.50;;
69573;SDS011;62840;52.366;5.980;2022-11-20T02:46:43;9.50;;;3.67;;
69573;SDS011;62840;52.366;5.980;2022-11-20T02:49:09;7.40;;;3.93;;
69573;SDS011;62840;52.366;5.980;2022-11-20T02:51:35;7.25;;;3.60;;
69573;SDS011;62840;52.366;5.980;2022-11-20T02:54:00;10.17;;;3.80;;
69573;SDS011;62840;52.366;5.980;2022-11-20T02:56:29;8.45;;;3.40;;
69573;SDS011;62840;52.366;5.980;2022-11-20T02:58:55;9.55;;;3.45;;
69573;SDS011;62840;52.366;5.980;2022-11-20T03:01:21;8.60;;;3.80;;
69573;SDS011;62840;52.366;5.980;2022-11-20T03:03:47;8.20;;;4.15;;
69573;SDS011;62840;52.366;5.980;2022-11-20T03:06:12;8.50;;;3.83;;
69573;SDS011;62840;52.366;5.980;2022-11-20T03:08:38;10.48;;;3.72;;
69573;SDS011;62840;52.366;5.980;2022-11-20T03:11:04;8.63;;;3.77;;
69573;SDS011;62840;52.366;5.980;2022-11-20T03:13:34;8.70;;;3.72;;
69573;SDS011;62840;52.366;5.980;2022-11-20T03:16:08;9.60;;;4.32;;
69573;SDS011;62840;52.366;5.980;2022-11-20T03:18:35;9.98;;;3.78;;
69573;SDS011;62840;52.366;5.980;2022-11-20T03:21:01;9.47;;;3.63;;
69573;SDS011;62840;52.366;5.980;2022-11-20T03:23:28;8.38;;;3.75;;
69573;SDS011;62840;52.366;5.980;2022-11-20T03:25:55;9.83;;;3.60;;
69573;SDS011;62840;52.366;5.980;2022-11-20T03:28:21;9.32;;;3.42;;
69573;SDS011;62840;52.366;5.980;2022-11-20T03:30:49;7.93;;;3.30;;
69573;SDS011;62840;52.366;5.980;2022-11-20T03:33:15;8.88;;;3.25;;
69573;SDS011;62840;52.366;5.980;2022-11-20T03:35:40;9.88;;;4.18;;
69573;SDS011;62840;52.366;5.980;2022-11-20T03:38:06;11.80;;;4.10;;
69573;SDS011;62840;52.366;5.980;2022-11-20T03:40:33;10.03;;;4.00;;
69573;SDS011;62840;52.366;5.980;2022-11-20T03:42:59;8.32;;;3.55;;
69573;SDS011;62840;52.366;5.980;2022-11-20T03:45:24;9.93;;;3.85;;
69573;SDS011;62840;52.366;5.980;2022-11-20T03:47:53;8.57;;;4.07;;
69573;SDS011;62840;52.366;5.980;2022-11-20T03:50:18;9.38;;;3.75;;
69573;SDS011;62840;52.366;5.980;2022-11-20T03:52:44;10.47;;;4.20;;
69573;SDS011;62840;52.366;5.980;2022-11-20T03:55:10;9.50;;;3.65;;
69573;SDS011;62840;52.366;5.980;2022-11-20T03:57:36;8.55;;;3.70;;
69573;SDS011;62840;52.366;5.980;2022-11-20T04:00:02;8.80;;;3.70;;
69573;SDS011;62840;52.366;5.980;2022-11-20T04:02:29;9.05;;;3.78;;
69573;SDS011;62840;52.366;5.980;2022-11-20T04:04:57;9.47;;;3.57;;
69573;SDS011;62840;52.366;5.980;2022-11-20T04:07:23;10.55;;;3.55;;
69573;SDS011;62840;52.366;5.980;2022-11-20T04:09:49;8.15;;;3.58;;
69573;SDS011;62840;52.366;5.980;2022-11-20T04:12:14;8.13;;;3.87;;
69573;SDS011;62840;52.366;5.980;2022-11-20T04:14:40;9.45;;;4.03;;
69573;SDS011;62840;52.366;5.980;2022-11-20T04:17:06;8.57;;;3.70;;
69573;SDS011;62840;52.366;5.980;2022-11-20T04:19:32;7.20;;;3.97;;
69573;SDS011;62840;52.366;5.980;2022-11-20T04:22:00;7.13;;;3.57;;
69573;SDS011;62840;52.366;5.980;2022-11-20T04:24:26;9.30;;;3.80;;
69573;SDS011;62840;52.366;5.980;2022-11-20T04:26:51;9.40;;;3.78;;
69573;SDS011;62840;52.366;5.980;2022-11-20T04:29:17;9.67;;;3.47;;
69573;SDS011;62840;52.366;5.980;2022-11-20T04:31:43;8.02;;;3.13;;
69573;SDS011;62840;52.366;5.980;2022-11-20T04:34:10;7.67;;;3.33;;
69573;SDS011;62840;52.366;5.980;2022-11-20T04:36:36;9.05;;;3.67;;
69573;SDS011;62840;52.366;5.980;2022-11-20T04:39:05;11.03;;;4.17;;
69573;SDS011;62840;52.366;5.980;2022-11-20T04:41:32;9.50;;;4.22;;
69573;SDS011;62840;52.366;5.980;2022-11-20T04:44:00;8.38;;;3.72;;
69573;SDS011;62840;52.366;5.980;2022-11-20T04:46:29;8.60;;;3.88;;
69573;SDS011;62840;52.366;5.980;2022-11-20T04:48:57;10.80;;;3.90;;
69573;SDS011;62840;52.366;5.980;2022-11-20T04:51:24;10.50;;;3.67;;
69573;SDS011;62840;52.366;5.980;2022-11-20T04:53:49;9.38;;;3.75;;
69573;SDS011;62840;52.366;5.980;2022-11-20T04:56:18;9.45;;;3.67;;
69573;SDS011;62840;52.366;5.980;2022-11-20T04:58:44;9.03;;;3.53;;
69573;SDS011;62840;52.366;5.980;2022-11-20T05:01:10;8.80;;;3.80;;
69573;SDS011;62840;52.366;5.980;2022-11-20T05:03:39;9.90;;;3.88;;
69573;SDS011;62840;52.366;5.980;2022-11-20T05:06:06;9.73;;;3.90;;
69573;SDS011;62840;52.366;5.980;2022-11-20T05:08:33;8.95;;;4.05;;
69573;SDS011;62840;52.366;5.980;2022-11-20T05:10:59;8.43;;;3.60;;
69573;SDS011;62840;52.366;5.980;2022-11-20T05:13:30;7.82;;;3.95;;
69573;SDS011;62840;52.366;5.980;2022-11-20T05:15:59;8.75;;;3.60;;
69573;SDS011;62840;52.366;5.980;2022-11-20T05:18:27;8.60;;;3.45;;
69573;SDS011;62840;52.366;5.980;2022-11-20T05:20:54;8.47;;;3.20;;
69573;SDS011;62840;52.366;5.980;2022-11-20T05:23:21;8.57;;;4.40;;
69573;SDS011;62840;52.366;5.980;2022-11-20T05:25:47;9.90;;;3.78;;
69573;SDS011;62840;52.366;5.980;2022-11-20T05:28:12;7.33;;;3.37;;
69573;SDS011;62840;52.366;5.980;2022-11-20T05:30:41;8.10;;;3.45;;
69573;SDS011;62840;52.366;5.980;2022-11-20T05:33:07;8.37;;;3.37;;
69573;SDS011;62840;52.366;5.980;2022-11-20T05:35:33;8.93;;;3.55;;
69573;SDS011;62840;52.366;5.980;2022-11-20T05:37:58;8.43;;;3.95;;
69573;SDS011;62840;52.366;5.980;2022-11-20T05:40:24;7.37;;;3.37;;
69573;SDS011;62840;52.366;5.980;2022-11-20T05:42:50;7.70;;;3.60;;
69573;SDS011;62840;52.366;5.980;2022-11-20T05:45:16;7.10;;;3.60;;
69573;SDS011;62840;52.366;5.980;2022-11-20T05:47:44;10.57;;;3.47;;
69573;SDS011;62840;52.366;5.980;2022-11-20T05:50:10;7.60;;;3.17;;
69573;SDS011;62840;52.366;5.980;2022-11-20T05:52:35;9.75;;;4.15;;
69573;SDS011;62840;52.366;5.980;2022-11-20T05:55:01;8.85;;;3.92;;
69573;SDS011;62840;52.366;5.980;2022-11-20T05:57:27;7.77;;;3.57;;
69573;SDS011;62840;52.366;5.980;2022-11-20T05:59:53;9.93;;;4.20;;
69573;SDS011;62840;52.366;5.980;2022-11-20T06:02:18;9.80;;;3.87;;
69573;SDS011;62840;52.366;5.980;2022-11-20T06:04:47;9.05;;;3.47;;
69573;SDS011;62840;52.366;5.980;2022-11-20T06:07:12;7.88;;;3.72;;
69573;SDS011;62840;52.366;5.980;2022-11-20T06:09:38;11.70;;;3.60;;
69573;SDS011;62840;52.366;5.980;2022-11-20T06:12:04;6.95;;;3.40;;
69573;SDS011;62840;52.366;5.980;2022-11-20T06:14:31;8.93;;;4.30;;
69573;SDS011;62840;52.366;5.980;2022-11-20T06:16:57;9.13;;;3.90;;
69573;SDS011;62840;52.366;5.980;2022-11-20T06:19:23;10.83;;;5.07;;
69573;SDS011;62840;52.366;5.980;2022-11-20T06:21:51;8.38;;;3.92;;
69573;SDS011;62840;52.366;5.980;2022-11-20T06:24:17;8.48;;;3.90;;
69573;SDS011;62840;52.366;5.980;2022-11-20T06:26:43;9.20;;;3.70;;
69573;SDS011;62840;52.366;5.980;2022-11-20T06:29:09;8.95;;;3.85;;
69573;SDS011;62840;52.366;5.980;2022-11-20T06:31:35;7.32;;;3.55;;
69573;SDS011;62840;52.366;5.980;2022-11-20T06:34:01;8.68;;;3.65;;
69573;SDS011;62840;52.366;5.980;2022-11-20T06:36:27;8.53;;;4.63;;
69573;SDS011;62840;52.366;5.980;2022-11-20T06:38:55;7.70;;;3.20;;
69573;SDS011;62840;52.366;5.980;2022-11-20T06:41:21;8.88;;;4.05;;
69573;SDS011;62840;52.366;5.980;2022-11-20T06:43:47;8.43;;;3.77;;
69573;SDS011;62840;52.366;5.980;2022-11-20T06:46:14;9.77;;;3.80;;
69573;SDS011;62840;52.366;5.980;2022-11-20T06:48:41;8.98;;;4.10;;
69573;SDS011;62840;52.366;5.980;2022-11-20T06:51:07;11.07;;;4.13;;
69573;SDS011;62840;52.366;5.980;2022-11-20T06:53:34;9.10;;;3.55;;
69573;SDS011;62840;52.366;5.980;2022-11-20T06:56:04;11.40;;;4.05;;
69573;SDS011;62840;52.366;5.980;2022-11-20T06:58:32;8.38;;;3.88;;
69573;SDS011;62840;52.366;5.980;2022-11-20T07:00:59;10.73;;;4.43;;
69573;SDS011;62840;52.366;5.980;2022-11-20T07:03:26;9.03;;;3.73;;
69573;SDS011;62840;52.366;5.980;2022-11-20T07:05:53;10.93;;;4.13;;
69573;SDS011;62840;52.366;5.980;2022-11-20T07:08:20;7.80;;;3.83;;
69573;SDS011;62840;52.366;5.980;2022-11-20T07:10:46;10.15;;;4.20;;
69573;SDS011;62840;52.366;5.980;2022-11-20T07:13:14;9.87;;;3.83;;
69573;SDS011;62840;52.366;5.980;2022-11-20T07:15:40;10.77;;;4.53;;
69573;SDS011;62840;52.366;5.980;2022-11-20T07:18:05;9.10;;;3.73;;
69573;SDS011;62840;52.366;5.980;2022-11-20T07:20:31;9.85;;;4.07;;
69573;SDS011;62840;52.366;5.980;2022-11-20T07:22:57;12.37;;;4.50;;
69573;SDS011;62840;52.366;5.980;2022-11-20T07:25:23;8.35;;;3.20;;
69573;SDS011;62840;52.366;5.980;2022-11-20T07:27:50;9.52;;;3.90;;
69573;SDS011;62840;52.366;5.980;2022-11-20T07:30:19;9.55;;;3.63;;
69573;SDS011;62840;52.366;5.980;2022-11-20T07:32:45;9.77;;;4.30;;
69573;SDS011;62840;52.366;5.980;2022-11-20T07:35:12;10.33;;;3.63;;
69573;SDS011;62840;52.366;5.980;2022-11-20T07:37:37;9.95;;;4.40;;
69573;SDS011;62840;52.366;5.980;2022-11-20T07:40:04;10.52;;;4.28;;
69573;SDS011;62840;52.366;5.980;2022-11-20T07:42:30;9.23;;;3.57;;
69573;SDS011;62840;52.366;5.980;2022-11-20T07:44:56;9.90;;;4.13;;
69573;SDS011;62840;52.366;5.980;2022-11-20T07:47:24;8.33;;;4.00;;
69573;SDS011;62840;52.366;5.980;2022-11-20T07:49:50;10.10;;;4.63;;
69573;SDS011;62840;52.366;5.980;2022-11-20T07:52:16;7.85;;;3.60;;
69573;SDS011;62840;52.366;5.980;2022-11-20T07:54:41;7.10;;;3.73;;
69573;SDS011;62840;52.366;5.980;2022-11-20T07:57:07;8.70;;;3.95;;
69573;SDS011;62840;52.366;5.980;2022-11-20T07:59:33;9.57;;;4.27;;
69573;SDS011;62840;52.366;5.980;2022-11-20T08:01:59;10.82;;;4.78;;
69573;SDS011;62840;52.366;5.980;2022-11-20T08:04:27;13.10;;;5.37;;
69573;SDS011;62840;52.366;5.980;2022-11-20T08:06:52;11.30;;;5.47;;
69573;SDS011;62840;52.366;5.980;2022-11-20T08:09:18;10.90;;;4.87;;
69573;SDS011;62840;52.366;5.980;2022-11-20T08:11:44;10.98;;;5.05;;
69573;SDS011;62840;52.366;5.980;2022-11-20T08:14:10;9.83;;;4.60;;
69573;SDS011;62840;52.366;5.980;2022-11-20T08:16:35;12.82;;;5.78;;
69573;SDS011;62840;52.366;5.980;2022-11-20T08:19:01;11.40;;;5.33;;
69573;SDS011;62840;52.366;5.980;2022-11-20T08:21:29;12.07;;;5.50;;
69573;SDS011;62840;52.366;5.980;2022-11-20T08:23:55;12.13;;;5.07;;
69573;SDS011;62840;52.366;5.980;2022-11-20T08:26:22;13.68;;;6.20;;
69573;SDS011;62840;52.366;5.980;2022-11-20T08:28:48;13.33;;;5.07;;
69573;SDS011;62840;52.366;5.980;2022-11-20T08:31:14;11.70;;;4.88;;
69573;SDS011;62840;52.366;5.980;2022-11-20T08:33:40;13.13;;;6.07;;
69573;SDS011;62840;52.366;5.980;2022-11-20T08:36:06;13.57;;;5.00;;
69573;SDS011;62840;52.366;5.980;2022-11-20T08:38:35;14.57;;;5.60;;
69573;SDS011;62840;52.366;5.980;2022-11-20T08:41:02;11.23;;;5.03;;
69573;SDS011;62840;52.366;5.980;2022-11-20T08:43:30;12.20;;;5.05;;
69573;SDS011;62840;52.366;5.980;2022-11-20T08:45:55;12.70;;;5.93;;
69573;SDS011;62840;52.366;5.980;2022-11-20T08:48:21;13.07;;;4.97;;
69573;SDS011;62840;52.366;5.980;2022-11-20T08:50:47;11.37;;;5.07;;
69573;SDS011;62840;52.366;5.980;2022-11-20T08:53:13;14.50;;;6.03;;
69573;SDS011;62840;52.366;5.980;2022-11-20T08:55:41;13.17;;;5.83;;
69573;SDS011;62840;52.366;5.980;2022-11-20T08:58:07;13.35;;;5.80;;
69573;SDS011;62840;52.366;5.980;2022-11-20T09:00:32;12.30;;;6.18;;
69573;SDS011;62840;52.366;5.980;2022-11-20T09:02:59;16.10;;;6.60;;
69573;SDS011;62840;52.366;5.980;2022-11-20T09:05:25;15.98;;;7.13;;
69573;SDS011;62840;52.366;5.980;2022-11-20T09:07:50;15.75;;;7.07;;
69573;SDS011;62840;52.366;5.980;2022-11-20T09:10:16;16.55;;;7.47;;
69573;SDS011;62840;52.366;5.980;2022-11-20T09:12:44;15.23;;;7.00;;
69573;SDS011;62840;52.366;5.980;2022-11-20T09:15:13;17.67;;;7.50;;
69573;SDS011;62840;52.366;5.980;2022-11-20T09:17:39;13.38;;;5.80;;
69573;SDS011;62840;52.366;5.980;2022-11-20T09:20:05;12.87;;;6.17;;
69573;SDS011;62840;52.366;5.980;2022-11-20T09:22:32;12.98;;;6.22;;
69573;SDS011;62840;52.366;5.980;2022-11-20T09:24:58;15.93;;;7.00;;
69573;SDS011;62840;52.366;5.980;2022-11-20T09:27:24;13.68;;;6.45;;
69573;SDS011;62840;52.366;5.980;2022-11-20T09:29:52;15.67;;;6.00;;
69573;SDS011;62840;52.366;5.980;2022-11-20T09:32:18;14.52;;;6.18;;
69573;SDS011;62840;52.366;5.980;2022-11-20T09:34:43;15.63;;;6.75;;
69573;SDS011;62840;52.366;5.980;2022-11-20T09:37:09;14.38;;;6.15;;
69573;SDS011;62840;52.366;5.980;2022-11-20T09:39:35;13.47;;;6.30;;
69573;SDS011;62840;52.366;5.980;2022-11-20T09:42:07;14.27;;;6.65;;
69573;SDS011;62840;52.366;5.980;2022-11-20T09:45:00;16.08;;;6.70;;
69573;SDS011;62840;52.366;5.980;2022-11-20T09:47:48;15.43;;;6.57;;
69573;SDS011;62840;52.366;5.980;2022-11-20T09:50:38;12.45;;;6.10;;
69573;SDS011;62840;52.366;5.980;2022-11-20T09:53:15;12.40;;;6.20;;
69573;SDS011;62840;52.366;5.980;2022-11-20T09:55:53;14.13;;;6.30;;
69573;SDS011;62840;52.366;5.980;2022-11-20T09:58:24;12.55;;;6.43;;
69573;SDS011;62840;52.366;5.980;2022-11-20T10:01:03;13.63;;;5.97;;
69573;SDS011;62840;52.366;5.980;2022-11-20T10:03:39;15.05;;;6.50;;
69573;SDS011;62840;52.366;5.980;2022-11-20T10:06:17;15.27;;;6.38;;
69573;SDS011;62840;52.366;5.980;2022-11-20T10:08:58;14.40;;;6.40;;
69573;SDS011;62840;52.366;5.980;2022-11-20T10:11:44;17.83;;;6.90;;
69573;SDS011;62840;52.366;5.980;2022-11-20T10:14:23;14.60;;;6.40;;
69573;SDS011;62840;52.366;5.980;2022-11-20T10:17:08;13.40;;;6.78;;
69573;SDS011;62840;52.366;5.980;2022-11-20T10:19:56;13.93;;;6.30;;
69573;SDS011;62840;52.366;5.980;2022-11-20T10:22:44;15.98;;;7.20;;
69573;SDS011;62840;52.366;5.980;2022-11-20T10:25:30;15.60;;;6.90;;
69573;SDS011;62840;52.366;5.980;2022-11-20T10:31:00;13.93;;;6.85;;
69573;SDS011;62840;52.366;5.980;2022-11-20T10:33:35;14.13;;;6.55;;
69573;SDS011;62840;52.366;5.980;2022-11-20T10:36:09;16.88;;;7.10;;
69573;SDS011;62840;52.366;5.980;2022-11-20T10:38:43;16.17;;;7.25;;
69573;SDS011;62840;52.366;5.980;2022-11-20T10:41:17;17.13;;;7.60;;
69573;SDS011;62840;52.366;5.980;2022-11-20T10:43:52;14.30;;;7.63;;
69573;SDS011;62840;52.366;5.980;2022-11-20T10:46:33;15.63;;;7.10;;
69573;SDS011;62840;52.366;5.980;2022-11-20T10:49:23;16.25;;;6.97;;
69573;SDS011;62840;52.366;5.980;2022-11-20T10:51:52;15.13;;;7.63;;
69573;SDS011;62840;52.366;5.980;2022-11-20T10:54:32;16.57;;;7.40;;
69573;SDS011;62840;52.366;5.980;2022-11-20T10:57:14;16.40;;;8.05;;
69573;SDS011;62840;52.366;5.980;2022-11-20T11:00:04;14.13;;;7.95;;
69573;SDS011;62840;52.366;5.980;2022-11-20T11:02:35;16.15;;;7.53;;
69573;SDS011;62840;52.366;5.980;2022-11-20T11:05:16;18.58;;;7.63;;
69573;SDS011;62840;52.366;5.980;2022-11-20T11:07:57;16.73;;;8.03;;
69573;SDS011;62840;52.366;5.980;2022-11-20T11:10:24;15.32;;;6.85;;
69573;SDS011;62840;52.366;5.980;2022-11-20T11:13:01;17.73;;;7.80;;
69573;SDS011;62840;52.366;5.980;2022-11-20T11:15:28;17.38;;;7.25;;
69573;SDS011;62840;52.366;5.980;2022-11-20T11:18:02;15.95;;;7.13;;
69573;SDS011;62840;52.366;5.980;2022-11-20T11:20:31;13.50;;;6.70;;
69573;SDS011;62840;52.366;5.980;2022-11-20T11:22:57;17.48;;;7.15;;
69573;SDS011;62840;52.366;5.980;2022-11-20T11:25:25;17.35;;;7.28;;
69573;SDS011;62840;52.366;5.980;2022-11-20T11:27:55;18.05;;;7.32;;
69573;SDS011;62840;52.366;5.980;2022-11-20T11:30:24;14.98;;;7.43;;
69573;SDS011;62840;52.366;5.980;2022-11-20T11:33:02;15.83;;;7.60;;
69573;SDS011;62840;52.366;5.980;2022-11-20T11:35:32;17.38;;;7.50;;
69573;SDS011;62840;52.366;5.980;2022-11-20T11:38:02;15.95;;;8.23;;
69573;SDS011;62840;52.366;5.980;2022-11-20T11:40:31;17.67;;;7.95;;
69573;SDS011;62840;52.366;5.980;2022-11-20T11:43:04;17.85;;;7.90;;
69573;SDS011;62840;52.366;5.980;2022-11-20T11:45:50;16.23;;;7.13;;
69573;SDS011;62840;52.366;5.980;2022-11-20T11:48:19;20.35;;;9.80;;
69573;SDS011;62840;52.366;5.980;2022-11-20T11:50:50;16.35;;;8.75;;
69573;SDS011;62840;52.366;5.980;2022-11-20T11:53:16;17.50;;;8.27;;
69573;SDS011;62840;52.366;5.980;2022-11-20T11:55:46;16.20;;;8.10;;
69573;SDS011;62840;52.366;5.980;2022-11-20T11:58:23;15.33;;;7.87;;
69573;SDS011;62840;52.366;5.980;2022-11-20T12:01:10;17.85;;;9.02;;
69573;SDS011;62840;52.366;5.980;2022-11-20T12:03:53;16.88;;;8.30;;
69573;SDS011;62840;52.366;5.980;2022-11-20T12:06:32;17.08;;;7.93;;
69573;SDS011;62840;52.366;5.980;2022-11-20T12:09:03;16.77;;;7.68;;
69573;SDS011;62840;52.366;5.980;2022-11-20T12:11:34;15.17;;;7.47;;
69573;SDS011;62840;52.366;5.980;2022-11-20T12:14:13;16.90;;;7.75;;
69573;SDS011;62840;52.366;5.980;2022-11-20T12:16:44;15.70;;;8.15;;
69573;SDS011;62840;52.366;5.980;2022-11-20T12:19:11;17.70;;;8.32;;
69573;SDS011;62840;52.366;5.980;2022-11-20T12:21:45;18.08;;;8.60;;
69573;SDS011;62840;52.366;5.980;2022-11-20T12:24:29;18.33;;;7.57;;
69573;SDS011;62840;52.366;5.980;2022-11-20T12:27:21;14.73;;;7.35;;
69573;SDS011;62840;52.366;5.980;2022-11-20T12:30:13;17.83;;;8.38;;
69573;SDS011;62840;52.366;5.980;2022-11-20T12:32:48;18.75;;;8.50;;
69573;SDS011;62840;52.366;5.980;2022-11-20T12:38:58;16.87;;;7.50;;
69573;SDS011;62840;52.366;5.980;2022-11-20T12:41:43;18.30;;;7.57;;
69573;SDS011;62840;52.366;5.980;2022-11-20T12:44:43;13.70;;;7.63;;
69573;SDS011;62840;52.366;5.980;2022-11-20T12:47:38;16.17;;;7.68;;
69573;SDS011;62840;52.366;5.980;2022-11-20T12:50:35;13.13;;;6.47;;
69573;SDS011;62840;52.366;5.980;2022-11-20T12:53:22;14.03;;;6.87;;
69573;SDS011;62840;52.366;5.980;2022-11-20T12:56:02;13.40;;;6.25;;
69573;SDS011;62840;52.366;5.980;2022-11-20T12:58:48;14.57;;;7.00;;
69573;SDS011;62840;52.366;5.980;2022-11-20T13:01:32;12.38;;;5.97;;
69573;SDS011;62840;52.366;5.980;2022-11-20T13:04:16;14.10;;;7.68;;
69573;SDS011;62840;52.366;5.980;2022-11-20T13:07:15;14.10;;;6.33;;
69573;SDS011;62840;52.366;5.980;2022-11-20T13:09:43;12.30;;;6.30;;
69573;SDS011;62840;52.366;5.980;2022-11-20T13:12:16;12.60;;;6.90;;
69573;SDS011;62840;52.366;5.980;2022-11-20T13:14:53;13.38;;;6.65;;
69573;SDS011;62840;52.366;5.980;2022-11-20T13:17:33;10.85;;;6.00;;
69573;SDS011;62840;52.366;5.980;2022-11-20T13:20:11;12.73;;;6.20;;
69573;SDS011;62840;52.366;5.980;2022-11-20T13:22:44;13.25;;;6.18;;
69573;SDS011;62840;52.366;5.980;2022-11-20T13:25:21;12.50;;;6.40;;
69573;SDS011;62840;52.366;5.980;2022-11-20T13:27:52;13.07;;;6.03;;
69573;SDS011;62840;52.366;5.980;2022-11-20T13:30:19;14.52;;;6.57;;
69573;SDS011;62840;52.366;5.980;2022-11-20T13:32:49;13.30;;;6.10;;
69573;SDS011;62840;52.366;5.980;2022-11-20T13:35:29;12.07;;;6.57;;
69573;SDS011;62840;52.366;5.980;2022-11-20T13:38:04;13.88;;;6.65;;
69573;SDS011;62840;52.366;5.980;2022-11-20T13:40:34;13.55;;;6.43;;
69573;SDS011;62840;52.366;5.980;2022-11-20T13:43:14;13.40;;;6.72;;
69573;SDS011;62840;52.366;5.980;2022-11-20T13:45:54;12.13;;;6.40;;
69573;SDS011;62840;52.366;5.980;2022-11-20T13:48:23;14.13;;;6.53;;
69573;SDS011;62840;52.366;5.980;2022-11-20T13:50:59;13.18;;;6.85;;
69573;SDS011;62840;52.366;5.980;2022-11-20T13:54:00;13.25;;;6.70;;
69573;SDS011;62840;52.366;5.980;2022-11-20T13:57:13;12.70;;;7.35;;
69573;SDS011;62840;52.366;5.980;2022-11-20T14:00:11;13.13;;;6.57;;
69573;SDS011;62840;52.366;5.980;2022-11-20T14:02:39;14.85;;;7.32;;
69573;SDS011;62840;52.366;5.980;2022-11-20T14:05:11;13.75;;;6.82;;
69573;SDS011;62840;52.366;5.980;2022-11-20T14:07:46;14.02;;;7.22;;
69573;SDS011;62840;52.366;5.980;2022-11-20T14:10:22;14.85;;;7.43;;
69573;SDS011;62840;52.366;5.980;2022-11-20T14:12:50;12.90;;;7.10;;
69573;SDS011;62840;52.366;5.980;2022-11-20T14:15:29;13.57;;;6.90;;
69573;SDS011;62840;52.366;5.980;2022-11-20T14:17:57;14.20;;;7.72;;
69573;SDS011;62840;52.366;5.980;2022-11-20T14:20:25;13.85;;;7.10;;
69573;SDS011;62840;52.366;5.980;2022-11-20T14:22:55;14.35;;;7.40;;
69573;SDS011;62840;52.366;5.980;2022-11-20T14:25:22;14.67;;;6.90;;
69573;SDS011;62840;52.366;5.980;2022-11-20T14:27:51;12.48;;;6.78;;
69573;SDS011;62840;52.366;5.980;2022-11-20T14:30:23;12.50;;;6.50;;
69573;SDS011;62840;52.366;5.980;2022-11-20T14:32:54;12.55;;;6.45;;
69573;SDS011;62840;52.366;5.980;2022-11-20T14:35:28;11.60;;;6.20;;
69573;SDS011;62840;52.366;5.980;2022-11-20T14:37:56;10.97;;;6.20;;
69573;SDS011;62840;52.366;5.980;2022-11-20T14:40:27;12.00;;;6.38;;
69573;SDS011;62840;52.366;5.980;2022-11-20T14:42:56;13.60;;;7.15;;
69573;SDS011;62840;52.366;5.980;2022-11-20T14:45:24;12.70;;;6.50;;
69573;SDS011;62840;52.366;5.980;2022-11-20T14:47:54;11.98;;;6.30;;
69573;SDS011;62840;52.366;5.980;2022-11-20T14:50:23;13.10;;;6.40;;
69573;SDS011;62840;52.366;5.980;2022-11-20T14:52:55;12.85;;;7.05;;
69573;SDS011;62840;52.366;5.980;2022-11-20T14:55:30;13.18;;;6.25;;
69573;SDS011;62840;52.366;5.980;2022-11-20T14:57:59;12.27;;;5.75;;
69573;SDS011;62840;52.366;5.980;2022-11-20T15:00:30;12.85;;;6.40;;
69573;SDS011;62840;52.366;5.980;2022-11-20T15:02:58;12.43;;;6.17;;
69573;SDS011;62840;52.366;5.980;2022-11-20T15:05:24;13.80;;;6.38;;